Time;durP1;ratioP1;P1;durP2;ratioP2;P2;SDS_P1;SDS_P2;PMS_P1;PMS_P2;Temp;Humidity;BMP_temperature;BMP_pressure;BME280_temperature;BME280_humidity;BME280_pressure;Samples;Min_cycle;Max_cycle;Signal;HPM_P1;HPM_P2
2023/01/27 00:00:25;;;;;;;190.40;44.80;;;;;;;3.03;100.00;101771.78;6095464;23;20377;-73
2023/01/27 00:02:50;;;;;;;220.02;47.08;;;;;;;2.99;100.00;101767.38;6094460;23;20014;-72
2023/01/27 00:05:16;;;;;;;284.42;52.85;;;;;;;2.94;100.00;101766.31;6092952;23;20026;-72
2023/01/27 00:07:44;;;;;;;298.17;49.30;;;;;;;2.88;100.00;101761.84;6098018;23;20010;-72
2023/01/27 00:10:13;;;;;;;181.50;44.35;;;;;;;2.85;100.00;101761.72;6097087;23;20038;-72
2023/01/27 00:15:22;;;;;;;286.40;46.28;;;;;;;2.86;100.00;101762.59;6093898;23;20677;-73
2023/01/27 00:17:48;;;;;;;135.43;37.50;;;;;;;2.84;100.00;101762.56;6092499;23;20038;-72
2023/01/27 00:24:34;;;;;;;147.18;41.35;;;;;;;2.82;100.00;101763.28;6093105;23;20114;-72
2023/01/27 00:25:42;;;;;;;115.38;35.15;;;;;;;2.86;100.00;101768.59;6092628;23;19912;-72
2023/01/27 00:28:07;;;;;;;116.07;33.10;;;;;;;2.92;100.00;101766.28;6093922;23;20436;-73
2023/01/27 00:30:33;;;;;;;120.75;33.78;;;;;;;2.95;100.00;101762.97;6092047;23;20028;-72
2023/01/27 00:35:42;;;;;;;92.00;30.48;;;;;;;2.98;100.00;101763.06;6093428;23;20242;-72
2023/01/27 00:38:07;;;;;;;102.15;30.60;;;;;;;3.02;100.00;101767.50;6092688;23;20143;-71
2023/01/27 00:40:33;;;;;;;103.15;29.35;;;;;;;3.04;100.00;101765.88;6092552;23;20014;-73
2023/01/27 00:42:58;;;;;;;94.93;28.58;;;;;;;3.06;100.00;101777.00;6092919;23;20025;-72
2023/01/27 00:48:07;;;;;;;95.07;30.30;;;;;;;3.14;100.00;101773.03;6090392;23;20021;-72
2023/01/27 00:50:33;;;;;;;87.53;28.13;;;;;;;3.13;100.00;101768.75;6090196;23;20517;-72
2023/01/27 00:53:01;;;;;;;90.63;28.70;;;;;;;3.13;100.00;101773.88;6090025;23;20030;-73
2023/01/27 00:55:26;;;;;;;80.93;26.33;;;;;;;3.14;100.00;101773.03;6090257;23;20457;-72
2023/01/27 00:57:52;;;;;;;75.25;25.25;;;;;;;3.15;100.00;101774.78;6091158;23;20029;-72
2023/01/27 01:00:17;;;;;;;75.20;26.17;;;;;;;3.16;100.00;101781.66;6088647;23;20022;-72
2023/01/27 01:02:43;;;;;;;74.60;25.50;;;;;;;3.16;100.00;101776.53;6092825;23;20073;-72
2023/01/27 01:05:08;;;;;;;68.13;21.92;;;;;;;3.16;100.00;101773.13;6092607;23;20106;-72
2023/01/27 01:07:34;;;;;;;59.78;22.85;;;;;;;3.17;100.00;101780.81;6092489;23;20426;-72
2023/01/27 01:09:59;;;;;;;59.15;23.35;;;;;;;3.20;100.00;101780.94;6091152;23;20351;-72
2023/01/27 01:12:25;;;;;;;62.25;24.38;;;;;;;3.20;100.00;101780.94;6088091;23;20021;-72
2023/01/27 01:14:50;;;;;;;62.55;23.27;;;;;;;3.20;100.00;101793.72;6090449;23;20033;-72
2023/01/27 01:17:16;;;;;;;57.85;21.35;;;;;;;3.21;100.00;101787.78;6091070;23;20029;-72
2023/01/27 01:19:41;;;;;;;54.08;22.48;;;;;;;3.20;100.00;101793.72;6091461;23;20067;-72
2023/01/27 01:22:06;;;;;;;48.30;22.42;;;;;;;3.23;100.00;101792.97;6091602;23;20023;-72
2023/01/27 01:24:32;;;;;;;58.30;23.52;;;;;;;3.24;100.00;101793.03;6093533;23;20021;-73
2023/01/27 01:26:57;;;;;;;57.35;24.40;;;;;;;3.25;100.00;101799.88;6090697;23;20018;-72
2023/01/27 01:29:22;;;;;;;47.65;20.63;;;;;;;3.26;100.00;101806.72;6087552;23;20018;-73
2023/01/27 01:31:50;;;;;;;51.58;20.70;;;;;;;3.30;100.00;101800.91;6089009;23;20047;-73
2023/01/27 01:34:16;;;;;;;47.70;22.65;;;;;;;3.29;100.00;101805.97;6090677;23;20448;-73
2023/01/27 01:36:41;;;;;;;53.28;21.92;;;;;;;3.31;99.70;101812.00;6090980;23;20018;-72
2023/01/27 01:39:06;;;;;;;48.60;20.92;;;;;;;3.30;99.03;101810.25;6090183;23;20023;-73
2023/01/27 01:41:32;;;;;;;44.63;19.90;;;;;;;3.29;98.83;101804.28;6090757;23;20046;-73
2023/01/27 01:43:57;;;;;;;52.17;23.05;;;;;;;3.31;98.33;101806.91;6090820;23;20187;-72
2023/01/27 01:46:22;;;;;;;51.35;22.20;;;;;;;3.33;98.47;101807.81;6089814;23;20018;-73
2023/01/27 01:48:56;;;;;;;52.97;22.23;;;;;;;3.34;98.76;101804.47;6090179;23;20010;-73
2023/01/27 01:51:33;;;;;;;55.53;22.03;;;;;;;3.37;98.19;101807.13;6090166;23;20018;-72
2023/01/27 01:54:15;;;;;;;56.50;22.77;;;;;;;3.37;97.70;101809.69;6090375;23;20014;-73
2023/01/27 01:56:40;;;;;;;54.78;23.35;;;;;;;3.38;97.57;101806.28;6091575;23;20026;-73
2023/01/27 01:59:11;;;;;;;46.97;21.20;;;;;;;3.39;97.44;101808.03;6089390;23;20014;-72
2023/01/27 02:01:37;;;;;;;45.83;21.65;;;;;;;3.39;97.41;101808.03;6090822;23;20473;-72
2023/01/27 02:04:08;;;;;;;42.47;20.63;;;;;;;3.41;97.36;101811.53;6091443;23;20036;-72
2023/01/27 02:06:41;;;;;;;46.22;20.45;;;;;;;3.43;97.73;101812.47;6091529;23;20113;-72
2023/01/27 02:09:06;;;;;;;42.45;19.40;;;;;;;3.46;96.66;101810.03;6089225;23;20027;-73
2023/01/27 02:11:32;;;;;;;41.15;19.35;;;;;;;3.45;95.95;101806.59;6089709;23;20023;-73
2023/01/27 02:14:00;;;;;;;41.95;18.45;;;;;;;3.50;95.74;101801.63;6091697;23;25388;-73
2023/01/27 02:16:26;;;;;;;36.78;19.65;;;;;;;3.48;94.87;101803.28;6091111;23;20012;-73
2023/01/27 02:18:52;;;;;;;37.22;16.90;;;;;;;3.49;94.71;101807.59;6090288;23;20109;-73
2023/01/27 02:21:17;;;;;;;43.20;18.13;;;;;;;3.50;94.70;101807.63;6088952;23;20065;-72
2023/01/27 02:23:54;;;;;;;38.30;17.92;;;;;;;3.50;94.82;101806.75;6089919;23;20073;-72
2023/01/27 02:26:28;;;;;;;39.60;17.23;;;;;;;3.49;94.65;101807.59;6089797;23;20073;-72
2023/01/27 02:28:57;;;;;;;39.13;16.60;;;;;;;3.46;94.65;101810.03;6088752;23;20006;-72
2023/01/27 02:31:23;;;;;;;40.17;16.25;;;;;;;3.45;95.22;101809.16;6089797;23;20088;-72
2023/01/27 02:33:49;;;;;;;34.33;16.02;;;;;;;3.47;95.17;101804.06;6089084;23;20022;-73
2023/01/27 02:36:16;;;;;;;34.05;15.35;;;;;;;3.43;94.50;101807.34;6090291;23;20026;-73
2023/01/27 02:38:54;;;;;;;32.58;15.82;;;;;;;3.38;94.77;101807.16;6090399;23;20038;-73
2023/01/27 02:41:34;;;;;;;36.88;17.08;;;;;;;3.39;95.00;101811.47;6090777;23;20457;-73
2023/01/27 02:43:59;;;;;;;35.03;15.85;;;;;;;3.37;95.61;101809.69;6092909;23;20014;-73
2023/01/27 02:46:25;;;;;;;34.17;14.50;;;;;;;3.34;95.37;101804.47;6092665;23;20077;-72
2023/01/27 02:48:51;;;;;;;36.38;14.18;;;;;;;3.34;95.07;101812.13;6094566;23;20086;-73
2023/01/27 02:51:17;;;;;;;30.92;14.57;;;;;;;3.37;95.45;101809.69;6092365;23;20057;-72
2023/01/27 02:53:43;;;;;;;27.13;12.00;;;;;;;3.38;94.27;101814.84;6091722;23;20052;-74
2023/01/27 02:56:08;;;;;;;24.55;10.95;;;;;;;3.39;94.85;101808.03;6091982;23;20011;-74
2023/01/27 02:58:34;;;;;;;29.55;11.50;;;;;;;3.35;94.70;101819.00;6093797;23;20057;-73
2023/01/27 03:00:59;;;;;;;25.60;11.15;;;;;;;3.36;94.38;101821.59;6091403;23;20045;-73
2023/01/27 03:03:24;;;;;;;30.27;12.25;;;;;;;3.31;94.41;101818.00;6094592;23;20050;-73
2023/01/27 03:05:50;;;;;;;25.75;12.38;;;;;;;3.31;95.03;101812.00;6094662;23;20017;-72
2023/01/27 03:08:17;;;;;;;24.77;11.75;;;;;;;3.30;94.84;101820.47;6094553;23;20014;-73
2023/01/27 03:10:48;;;;;;;26.65;12.50;;;;;;;3.30;95.56;101825.59;6095497;23;20026;-73
2023/01/27 03:13:13;;;;;;;25.58;11.55;;;;;;;3.28;96.10;101823.00;6095898;23;20015;-73
2023/01/27 03:18:23;;;;;;;30.08;12.55;;;;;;;3.26;96.60;101834.81;6095351;23;20025;-73
2023/01/27 03:20:48;;;;;;;35.38;11.75;;;;;;;3.29;95.54;101832.38;6095201;23;20023;-73
2023/01/27 03:23:16;;;;;;;25.23;11.50;;;;;;;3.28;95.05;101830.66;6092095;23;20382;-73
2023/01/27 03:25:43;;;;;;;29.80;10.85;;;;;;;3.27;95.92;101826.34;6093059;23;20010;-73
2023/01/27 03:28:09;;;;;;;30.48;10.38;;;;;;;3.27;95.63;101826.34;6106113;23;20041;-73
2023/01/27 03:30:35;;;;;;;21.90;10.38;;;;;;;3.28;94.67;101828.09;6104191;23;20530;-73
2023/01/27 03:33:02;;;;;;;20.35;10.70;;;;;;;3.31;94.60;101832.44;6094177;23;20038;-73
2023/01/27 03:35:33;;;;;;;23.27;10.25;;;;;;;3.29;94.71;101829.81;6094744;23;20090;-73
2023/01/27 03:46:14;;;;;;;20.95;10.18;;;;;;;3.28;94.91;101838.31;6092823;23;20021;-73
2023/01/27 03:48:39;;;;;;;21.77;10.27;;;;;;;3.30;94.78;101843.47;6093445;23;20462;-73
2023/01/27 03:51:06;;;;;;;24.42;10.07;;;;;;;3.28;94.43;101842.56;6093509;23;20033;-73
2023/01/27 03:53:33;;;;;;;25.15;10.43;;;;;;;3.27;94.78;101846.78;6091538;23;20053;-73
2023/01/27 03:55:59;;;;;;;20.95;10.65;;;;;;;3.26;95.15;101846.75;6090056;23;20026;-73
2023/01/27 03:58:27;;;;;;;25.42;10.90;;;;;;;3.28;95.37;101842.56;6092685;23;20011;-73
2023/01/27 04:00:59;;;;;;;20.45;10.05;;;;;;;3.25;95.47;101845.88;6091901;23;20030;-73
2023/01/27 04:08:58;;;;;;;22.80;9.70;;;;;;;3.25;95.74;101840.75;6092309;23;20025;-73
2023/01/27 04:14:09;;;;;;;21.67;9.35;;;;;;;3.24;95.59;101846.66;6092384;23;20477;-74
2023/01/27 04:16:38;;;;;;;18.83;8.63;;;;;;;3.25;95.44;101843.31;6093113;23;20030;-73
2023/01/27 04:19:05;;;;;;;23.80;10.65;;;;;;;3.27;96.33;101846.78;6090853;23;20105;-72
2023/01/27 04:21:31;;;;;;;19.45;9.98;;;;;;;3.26;95.50;101845.03;6091256;23;20068;-73
2023/01/27 04:23:57;;;;;;;23.50;9.43;;;;;;;3.26;95.75;101850.16;6090595;23;20010;-73
2023/01/27 04:26:23;;;;;;;16.88;8.32;;;;;;;3.26;95.83;101850.16;6091258;23;20350;-72
2023/01/27 04:28:49;;;;;;;19.45;8.02;;;;;;;3.26;95.78;101849.31;6091659;23;20075;-72
2023/01/27 04:31:15;;;;;;;20.85;8.65;;;;;;;3.31;94.80;101852.88;6091431;23;20120;-73
2023/01/27 04:33:41;;;;;;;15.73;8.02;;;;;;;3.27;95.24;101848.47;6091789;23;20145;-72
2023/01/27 04:36:07;;;;;;;15.07;8.13;;;;;;;3.27;94.65;101851.03;6091791;23;20026;-73
2023/01/27 04:38:33;;;;;;;13.38;7.35;;;;;;;3.26;94.83;101854.41;6091271;23;20018;-72
2023/01/27 04:40:58;;;;;;;13.18;7.40;;;;;;;3.25;94.76;101850.09;6090772;23;20106;-72
2023/01/27 04:43:24;;;;;;;15.07;7.18;;;;;;;3.27;94.62;101851.91;6091281;23;20020;-72
2023/01/27 04:45:49;;;;;;;12.05;6.80;;;;;;;3.23;94.78;101849.19;6089529;23;20031;-72
2023/01/27 04:48:14;;;;;;;16.08;7.18;;;;;;;3.22;94.63;101855.97;6089497;23;20015;-72
2023/01/27 04:50:40;;;;;;;15.05;8.00;;;;;;;3.22;95.05;101855.09;6090387;23;20064;-72
2023/01/27 04:53:05;;;;;;;11.38;6.18;;;;;;;3.20;95.54;101855.03;6090282;23;20653;-72
2023/01/27 04:55:31;;;;;;;13.90;6.55;;;;;;;3.21;95.46;101861.00;6091162;23;20535;-72
2023/01/27 04:57:56;;;;;;;13.43;7.88;;;;;;;3.19;95.54;101858.41;6090425;23;20022;-71
2023/01/27 05:00:21;;;;;;;13.45;7.30;;;;;;;3.21;95.84;101863.56;6087998;23;20022;-72
2023/01/27 05:02:47;;;;;;;10.95;6.43;;;;;;;3.19;95.54;101865.19;6091403;23;20529;-72
2023/01/27 05:05:12;;;;;;;14.65;7.07;;;;;;;3.20;95.94;101872.06;6090563;23;20015;-72
2023/01/27 05:07:38;;;;;;;16.38;7.35;;;;;;;3.18;95.62;101871.09;6094042;23;20062;-71
2023/01/27 05:10:05;;;;;;;15.80;7.60;;;;;;;3.17;95.82;101877.88;6094204;23;20077;-72
2023/01/27 05:12:31;;;;;;;11.93;6.50;;;;;;;3.16;95.86;101871.06;6083664;23;20192;-72
2023/01/27 05:14:56;;;;;;;15.70;7.50;;;;;;;3.14;95.62;101875.22;6090258;23;20055;-72
2023/01/27 05:17:22;;;;;;;10.85;6.40;;;;;;;3.15;95.99;101870.97;6089618;23;20025;-71
2023/01/27 05:19:47;;;;;;;15.95;7.85;;;;;;;3.14;95.23;101875.22;6090861;23;20010;-72
2023/01/27 05:22:13;;;;;;;13.90;7.40;;;;;;;3.14;95.42;101874.38;6091089;23;20006;-72
2023/01/27 05:24:38;;;;;;;17.55;8.40;;;;;;;3.12;95.01;101878.53;6090718;23;20018;-72
2023/01/27 05:27:04;;;;;;;15.25;7.70;;;;;;;3.11;95.75;101880.19;6090379;23;20069;-71
2023/01/27 05:29:30;;;;;;;18.25;7.85;;;;;;;3.11;95.30;101879.34;6091434;23;20078;-72
2023/01/27 05:31:55;;;;;;;16.92;7.70;;;;;;;3.11;95.92;101881.91;6090170;23;20005;-71
2023/01/27 05:34:21;;;;;;;17.02;8.13;;;;;;;3.11;95.18;101887.03;6090590;23;20013;-71
2023/01/27 05:36:46;;;;;;;16.10;8.70;;;;;;;3.11;95.98;101889.56;6091268;23;20593;-71
2023/01/27 05:39:12;;;;;;;16.02;8.20;;;;;;;3.11;95.74;101890.41;6091607;23;20022;-72
2023/01/27 05:41:37;;;;;;;18.08;8.23;;;;;;;3.11;95.29;101880.19;6090344;23;20038;-71
2023/01/27 05:44:04;;;;;;;19.17;7.88;;;;;;;3.12;95.00;101876.84;6088941;23;20030;-71
2023/01/27 05:46:31;;;;;;;15.70;8.00;;;;;;;3.13;95.12;101886.28;6090047;23;20009;-71
2023/01/27 05:49:01;;;;;;;16.65;8.27;;;;;;;3.15;94.91;101891.41;6090281;23;20077;-71
2023/01/27 05:51:29;;;;;;;21.00;9.10;;;;;;;3.15;94.85;101892.28;6091135;23;20029;-71
2023/01/27 05:53:55;;;;;;;20.77;8.80;;;;;;;3.16;94.35;101888.06;6089942;23;20014;-72
2023/01/27 05:56:21;;;;;;;16.80;8.38;;;;;;;3.19;93.69;101889.06;6091742;23;20547;-71
2023/01/27 05:58:47;;;;;;;20.10;9.13;;;;;;;3.22;93.60;101895.97;6090412;23;20017;-71
2023/01/27 06:01:15;;;;;;;15.32;7.47;;;;;;;3.21;94.27;101894.22;6091110;23;20033;-71
2023/01/27 06:03:41;;;;;;;16.60;9.10;;;;;;;3.21;94.24;101901.88;6092062;23;20144;-71
2023/01/27 06:06:08;;;;;;;19.10;8.70;;;;;;;3.21;94.33;101897.66;6092604;23;20049;-71
2023/01/27 06:08:34;;;;;;;15.32;8.57;;;;;;;3.24;93.48;101894.34;6089927;23;20014;-71
2023/01/27 06:11:00;;;;;;;17.92;10.00;;;;;;;3.22;94.16;101901.09;6089833;23;20109;-71
2023/01/27 06:13:26;;;;;;;19.27;9.05;;;;;;;3.20;94.38;101895.88;6090090;23;20002;-71
2023/01/27 06:15:52;;;;;;;19.33;9.38;;;;;;;3.23;93.47;101903.69;6089467;23;20398;-72
2023/01/27 06:18:18;;;;;;;20.05;9.93;;;;;;;3.23;93.92;101905.38;6087987;23;20018;-72
2023/01/27 06:20:44;;;;;;;15.65;8.13;;;;;;;3.21;93.59;101907.88;6095454;23;20046;-73
2023/01/27 06:23:12;;;;;;;17.02;8.77;;;;;;;3.21;94.25;101899.31;6092512;23;20334;-71
2023/01/27 06:25:40;;;;;;;19.05;9.90;;;;;;;3.21;94.56;101900.19;6092148;23;20038;-71
2023/01/27 06:28:06;;;;;;;18.58;9.50;;;;;;;3.21;93.92;101902.75;6115166;23;20478;-72
2023/01/27 06:30:37;;;;;;;17.85;9.75;;;;;;;3.21;93.49;101902.75;6089729;23;20010;-72
2023/01/27 06:33:03;;;;;;;16.23;8.90;;;;;;;3.22;94.25;101907.06;6091966;23;20018;-73
2023/01/27 06:35:30;;;;;;;17.70;9.25;;;;;;;3.24;93.29;101902.88;6094456;23;20041;-72
2023/01/27 06:37:59;;;;;;;14.77;8.98;;;;;;;3.29;93.11;101906.47;6093907;23;20358;-71
2023/01/27 06:40:25;;;;;;;16.88;8.80;;;;;;;3.31;93.62;101901.44;6093520;23;20342;-74
2023/01/27 06:42:51;;;;;;;19.38;8.23;;;;;;;3.30;93.31;101905.66;6092625;23;20022;-71
2023/01/27 06:45:16;;;;;;;14.85;7.65;;;;;;;3.32;92.56;101898.94;6088866;23;20362;-70
2023/01/27 06:47:42;;;;;;;17.95;9.95;;;;;;;3.34;93.24;101909.22;6090410;23;20007;-70
2023/01/27 06:50:08;;;;;;;17.25;9.68;;;;;;;3.34;92.92;101915.22;6090523;23;20015;-72
2023/01/27 06:52:34;;;;;;;18.23;9.75;;;;;;;3.36;92.54;101925.47;6091992;23;20038;-71
2023/01/27 06:55:00;;;;;;;17.70;9.68;;;;;;;3.37;92.29;101914.47;6093144;23;20022;-71
2023/01/27 06:57:26;;;;;;;18.20;10.07;;;;;;;3.37;93.27;101917.88;6095070;23;20023;-71
2023/01/27 06:59:51;;;;;;;19.95;10.60;;;;;;;3.38;92.76;101914.50;6091085;23;20014;-71
2023/01/27 07:02:17;;;;;;;18.25;10.30;;;;;;;3.42;93.28;101913.81;6092201;23;20662;-71
2023/01/27 07:04:42;;;;;;;20.42;10.55;;;;;;;3.41;92.68;101923.97;6092769;23;20315;-70
2023/01/27 07:07:07;;;;;;;19.15;9.88;;;;;;;3.42;93.52;101925.72;6092693;23;20426;-71
2023/01/27 07:09:34;;;;;;;20.02;10.93;;;;;;;3.43;92.73;101930.03;6090226;23;20022;-71
2023/01/27 07:11:59;;;;;;;21.55;10.98;;;;;;;3.45;92.54;101936.94;6092093;23;20026;-70
2023/01/27 07:14:24;;;;;;;21.50;11.40;;;;;;;3.44;92.46;101935.19;6096953;23;20450;-71
2023/01/27 07:16:50;;;;;;;21.77;11.27;;;;;;;3.45;92.70;101929.28;6101876;23;20010;-71
2023/01/27 07:19:15;;;;;;;18.83;10.50;;;;;;;3.47;92.47;101932.75;6095537;23;20346;-70
2023/01/27 07:21:41;;;;;;;21.77;11.50;;;;;;;3.48;92.32;101938.72;6094594;23;20025;-70
2023/01/27 07:24:07;;;;;;;19.02;11.02;;;;;;;3.48;93.16;101937.06;6095541;23;20042;-71
2023/01/27 07:26:33;;;;;;;21.27;10.77;;;;;;;3.52;92.63;101944.03;6095832;23;20015;-70
2023/01/27 07:28:58;;;;;;;19.92;10.55;;;;;;;3.52;93.01;101950.84;6097146;23;20060;-71
2023/01/27 07:31:24;;;;;;;20.75;10.52;;;;;;;3.52;93.19;101949.16;6097144;23;20011;-70
2023/01/27 07:33:49;;;;;;;19.38;10.50;;;;;;;3.54;92.42;101954.31;6095612;23;20093;-71
2023/01/27 07:36:15;;;;;;;22.77;11.60;;;;;;;3.54;92.39;101950.06;6094006;23;20105;-71
2023/01/27 07:38:40;;;;;;;20.02;11.95;;;;;;;3.57;92.46;101949.31;6069815;23;20476;-71
2023/01/27 07:41:06;;;;;;;18.30;10.43;;;;;;;3.57;92.16;101951.88;6095614;23;20029;-71
2023/01/27 07:43:32;;;;;;;21.17;10.90;;;;;;;3.58;92.25;101948.50;6094572;23;20006;-70
2023/01/27 07:45:58;;;;;;;19.98;10.52;;;;;;;3.58;92.54;101950.19;6093564;23;20023;-71
2023/01/27 07:48:24;;;;;;;20.95;10.63;;;;;;;3.59;92.01;101949.41;6093147;23;20024;-71
2023/01/27 07:50:49;;;;;;;22.40;11.30;;;;;;;3.60;92.86;101953.66;6093159;23;20019;-71
2023/01/27 07:53:15;;;;;;;18.92;10.35;;;;;;;3.63;92.55;101946.13;6094030;23;20018;-72
2023/01/27 07:55:40;;;;;;;21.27;9.88;;;;;;;3.69;92.40;101954.03;6093513;23;20354;-70
2023/01/27 07:58:06;;;;;;;17.58;10.32;;;;;;;3.70;92.01;101951.53;6093943;23;20006;-71
2023/01/27 08:00:32;;;;;;;18.45;9.90;;;;;;;3.72;91.98;101949.03;6091009;23;20022;-71
2023/01/27 08:02:59;;;;;;;16.30;8.80;;;;;;;3.75;91.43;101952.59;6093394;23;20030;-71
2023/01/27 08:05:25;;;;;;;17.73;8.77;;;;;;;3.81;91.13;101962.16;6093328;23;20015;-71
2023/01/27 08:07:51;;;;;;;21.10;9.95;;;;;;;3.85;90.84;101956.38;6092012;23;20342;-71
2023/01/27 08:10:17;;;;;;;15.05;9.30;;;;;;;3.88;90.93;101962.47;6092584;23;20006;-71
2023/01/27 08:12:44;;;;;;;15.38;8.93;;;;;;;3.94;89.74;101966.94;6093287;23;20054;-71
2023/01/27 08:15:10;;;;;;;15.88;8.88;;;;;;;4.01;90.58;101969.78;6092359;23;20011;-70
2023/01/27 08:17:36;;;;;;;19.92;9.95;;;;;;;4.03;89.46;101967.28;6091769;23;20027;-71
2023/01/27 08:20:02;;;;;;;17.83;8.57;;;;;;;4.07;88.47;101974.22;6092041;23;20578;-70
2023/01/27 08:22:28;;;;;;;15.65;8.68;;;;;;;4.06;89.09;101973.34;6093554;23;20010;-70
2023/01/27 08:24:53;;;;;;;17.20;9.25;;;;;;;4.09;89.53;101967.50;6091038;23;20466;-71
2023/01/27 08:27:19;;;;;;;13.77;8.00;;;;;;;4.11;89.32;101968.44;6094773;23;20022;-71
2023/01/27 08:29:44;;;;;;;14.15;8.10;;;;;;;4.12;89.77;101966.75;6094512;23;20442;-71
2023/01/27 08:32:10;;;;;;;16.67;8.50;;;;;;;4.11;88.80;101971.00;6093177;23;20018;-71
2023/01/27 08:34:37;;;;;;;12.85;7.63;;;;;;;4.13;88.75;101968.47;6092576;23;20014;-71
2023/01/27 08:37:04;;;;;;;11.60;7.20;;;;;;;4.09;89.11;101967.50;6091285;23;20093;-71
2023/01/27 08:39:30;;;;;;;15.85;8.32;;;;;;;4.06;88.70;101977.63;6091668;23;20533;-71
2023/01/27 08:41:56;;;;;;;12.63;7.15;;;;;;;4.06;89.99;101977.63;6092736;23;20025;-71
2023/01/27 08:44:23;;;;;;;16.55;7.75;;;;;;;4.05;88.81;101981.88;6092470;23;20022;-71
2023/01/27 08:46:49;;;;;;;12.68;7.38;;;;;;;4.06;88.32;101980.19;6092234;23;20038;-71
2023/01/27 08:49:14;;;;;;;13.50;7.22;;;;;;;4.08;88.60;101983.66;6091470;23;20013;-71
2023/01/27 08:51:41;;;;;;;15.20;8.48;;;;;;;4.10;88.47;101985.47;6092718;23;20361;-71
2023/01/27 08:54:06;;;;;;;12.40;7.43;;;;;;;4.09;90.09;101991.38;6092999;23;20026;-71
2023/01/27 08:56:32;;;;;;;13.20;7.75;;;;;;;4.11;89.40;101986.34;6094045;23;20033;-71
2023/01/27 08:58:58;;;;;;;11.80;7.30;;;;;;;4.16;88.67;101978.81;6092685;23;20014;-71
2023/01/27 09:01:24;;;;;;;13.68;7.20;;;;;;;4.21;88.08;101980.72;6092353;23;20346;-71
2023/01/27 09:03:50;;;;;;;13.00;7.85;;;;;;;4.28;88.24;101976.72;6093780;23;20139;-72
2023/01/27 09:06:16;;;;;;;11.10;6.70;;;;;;;4.37;88.02;101974.47;6094980;23;20074;-71
2023/01/27 09:08:42;;;;;;;11.20;6.90;;;;;;;4.46;88.35;101985.06;6098337;23;20127;-75
2023/01/27 09:11:16;;;;;;;11.55;7.28;;;;;;;4.52;88.02;101978.47;6105765;23;20040;-71
2023/01/27 09:13:42;;;;;;;8.98;5.63;;;;;;;4.53;86.83;101972.53;6099526;23;20006;-70
2023/01/27 09:16:08;;;;;;;9.40;6.18;;;;;;;4.54;86.32;101975.94;6093328;23;20030;-70
2023/01/27 09:18:34;;;;;;;10.43;6.55;;;;;;;4.46;86.17;101968.00;6092349;23;20029;-71
2023/01/27 09:21:06;;;;;;;10.27;6.38;;;;;;;4.42;86.57;101973.81;6091807;23;20015;-71
2023/01/27 09:23:32;;;;;;;8.38;5.35;;;;;;;4.40;87.38;101969.47;6091893;23;20101;-71
2023/01/27 09:25:58;;;;;;;10.35;6.05;;;;;;;4.45;86.52;101975.63;6091006;23;21488;-71
2023/01/27 09:28:23;;;;;;;7.22;4.90;;;;;;;4.52;86.29;101981.03;6090990;23;20378;-71
2023/01/27 09:30:49;;;;;;;9.93;6.07;;;;;;;4.66;86.13;101977.25;6090469;23;20032;-71
2023/01/27 09:33:15;;;;;;;8.43;5.28;;;;;;;4.79;85.01;101980.22;6092688;23;20022;-71
2023/01/27 09:35:51;;;;;;;7.93;4.75;;;;;;;4.93;84.41;101982.44;6092666;23;20462;-71
2023/01/27 09:38:19;;;;;;;7.22;4.93;;;;;;;5.03;84.56;101983.63;6090077;23;20038;-71
2023/01/27 09:41:09;;;;;;;8.10;4.90;;;;;;;4.99;83.88;101984.34;6092232;23;20090;-71
2023/01/27 09:43:54;;;;;;;8.18;4.43;;;;;;;4.98;83.32;101982.63;6093159;23;20002;-71
2023/01/27 09:46:31;;;;;;;6.40;3.88;;;;;;;4.95;83.11;101991.03;6092703;23;20022;-71
2023/01/27 09:49:20;;;;;;;6.25;3.95;;;;;;;4.94;84.13;101998.69;6091762;23;20038;-71
2023/01/27 09:52:34;;;;;;;7.38;4.43;;;;;;;4.94;83.52;102002.13;6087840;23;20506;-71
2023/01/27 09:55:25;;;;;;;6.28;3.95;;;;;;;5.02;83.35;102012.63;6093188;23;20026;-71
2023/01/27 09:58:29;;;;;;;5.22;3.47;;;;;;;5.18;82.99;102009.78;6090427;23;20026;-71
2023/01/27 10:01:18;;;;;;;4.65;3.17;;;;;;;5.40;82.65;102011.34;6072991;23;20061;-71
2023/01/27 10:04:05;;;;;;;4.20;3.25;;;;;;;5.46;81.87;102016.66;6091854;23;20038;-71
2023/01/27 10:06:47;;;;;;;4.03;2.63;;;;;;;5.47;81.58;102023.53;6091694;23;20097;-71
2023/01/27 10:09:13;;;;;;;4.35;3.15;;;;;;;5.51;82.23;102022.81;6090051;23;20016;-71
2023/01/27 10:11:57;;;;;;;3.88;2.83;;;;;;;5.48;81.31;102023.59;6091711;23;20362;-71
2023/01/27 10:14:44;;;;;;;2.67;1.63;;;;;;;5.53;81.67;102022.03;6091880;23;20026;-71
2023/01/27 10:17:27;;;;;;;3.65;2.05;;;;;;;5.65;81.88;102017.31;6091397;23;20228;-71
2023/01/27 10:19:55;;;;;;;2.53;1.75;;;;;;;5.76;81.02;102012.50;6092389;23;20108;-71
2023/01/27 10:22:49;;;;;;;2.70;1.73;;;;;;;5.79;79.68;102020.28;6091716;23;20415;-71
2023/01/27 10:25:51;;;;;;;2.15;1.77;;;;;;;5.91;79.93;102018.09;6063049;23;20051;-70
2023/01/27 10:28:22;;;;;;;2.20;1.80;;;;;;;6.04;80.49;102021.91;6092678;23;20189;-71
2023/01/27 10:30:58;;;;;;;2.88;1.40;;;;;;;6.10;79.88;102009.25;6091400;23;20023;-71
2023/01/27 10:33:32;;;;;;;1.63;1.10;;;;;;;6.09;78.87;102007.50;6092475;23;20049;-70
2023/01/27 10:36:03;;;;;;;2.72;1.85;;;;;;;6.15;79.60;102015.38;6093003;23;20049;-70
2023/01/27 10:38:39;;;;;;;2.05;1.60;;;;;;;6.13;79.77;102011.91;6092073;23;20053;-71
2023/01/27 10:41:22;;;;;;;2.67;1.40;;;;;;;6.09;78.92;102010.06;6092011;23;20089;-71
2023/01/27 10:44:06;;;;;;;1.85;1.58;;;;;;;6.03;77.61;102003.06;6092082;23;20117;-71
2023/01/27 10:46:39;;;;;;;2.25;1.70;;;;;;;6.02;79.05;102015.88;6092341;23;20003;-70
2023/01/27 10:49:21;;;;;;;2.40;1.40;;;;;;;5.98;79.42;102017.47;6092972;23;20508;-71
2023/01/27 10:51:54;;;;;;;4.07;1.50;;;;;;;5.94;79.59;102023.31;6092153;23;20029;-72
2023/01/27 10:54:37;;;;;;;2.53;1.70;;;;;;;5.92;79.00;102008.69;6093037;23;20085;-71
2023/01/27 10:57:09;;;;;;;2.53;1.33;;;;;;;5.95;79.71;102021.63;6094006;23;20015;-71
2023/01/27 11:00:18;;;;;;;1.48;1.10;;;;;;;5.94;79.44;102014.75;6093263;23;20014;-71
2023/01/27 11:03:08;;;;;;;2.03;1.65;;;;;;;5.98;78.90;102017.47;6094177;23;20015;-71
2023/01/27 11:05:40;;;;;;;2.83;1.23;;;;;;;6.01;78.99;102012.41;6094706;23;20014;-70
2023/01/27 11:08:21;;;;;;;1.77;1.30;;;;;;;6.03;79.13;102020.16;6100450;23;20011;-69
2023/01/27 11:13:37;;;;;;;1.33;1.23;;;;;;;6.13;78.41;102004.22;6093648;23;20037;-71
2023/01/27 11:16:06;;;;;;;2.45;1.58;;;;;;;6.16;78.21;102004.31;6092804;23;20776;-71
2023/01/27 11:18:36;;;;;;;2.80;1.40;;;;;;;6.16;78.02;102001.72;6094497;23;20093;-70
2023/01/27 11:21:04;;;;;;;1.92;1.35;;;;;;;6.14;78.51;102001.69;6092327;23;20025;-71
2023/01/27 11:23:34;;;;;;;2.25;1.60;;;;;;;6.10;78.07;101997.28;6093479;23;20105;-71
2023/01/27 11:26:08;;;;;;;1.35;1.13;;;;;;;6.09;77.35;101987.84;6094138;23;20046;-71
2023/01/27 11:28:44;;;;;;;1.52;1.23;;;;;;;6.07;77.83;101997.22;6092702;23;20570;-73
2023/01/27 11:31:33;;;;;;;2.10;1.38;;;;;;;6.07;78.19;101996.34;6094038;23;20033;-71
2023/01/27 11:34:19;;;;;;;1.95;1.33;;;;;;;6.08;78.57;102005.78;6095002;23;20454;-71
2023/01/27 11:36:46;;;;;;;2.00;1.52;;;;;;;6.11;79.52;102001.59;6094430;23;20042;-71
2023/01/27 11:39:14;;;;;;;1.77;1.25;;;;;;;6.09;78.32;101994.66;6093007;23;20097;-71
2023/01/27 11:41:46;;;;;;;1.92;1.30;;;;;;;6.16;78.58;101992.34;6094001;23;20029;-70
2023/01/27 11:44:18;;;;;;;4.13;1.63;;;;;;;6.25;77.80;101982.34;6093342;23;20754;-69
2023/01/27 11:46:46;;;;;;;1.60;1.27;;;;;;;6.31;77.12;101977.38;6093111;23;20020;-71
2023/01/27 11:49:20;;;;;;;1.88;1.27;;;;;;;6.30;75.85;101964.47;6091949;23;20073;-71
2023/01/27 11:51:47;;;;;;;1.73;1.35;;;;;;;6.29;76.47;101971.31;6091788;23;20022;-71
2023/01/27 11:54:19;;;;;;;2.17;1.80;;;;;;;6.30;77.86;101979.88;6092758;23;20126;-71
2023/01/27 11:56:47;;;;;;;2.00;1.40;;;;;;;6.30;77.30;101977.31;6092603;23;20053;-71
2023/01/27 11:59:22;;;;;;;1.77;1.42;;;;;;;6.25;76.75;101972.06;6092797;23;20019;-71
2023/01/27 12:01:55;;;;;;;1.92;1.60;;;;;;;6.25;77.60;101977.22;6091736;23;20017;-71